Tiempo atmosférico en la estación meteorológica de Villanueva De Los Infantes, Ciudad Real (870 m.)



Fecha
DESCASC
Temp. máxima en grados centígrados (hora)
DESCASC
Temp. mínima en grados centígrados (hora)
DESCASC
Temp. media en grados centígrados
DESCASC
Racha de viento máxima en m/sg (hora)
DESCASC
Velocidad máxima media en intervalos de 10 minutos(hora)
DESCASC
Precipitaciones diarias en mm
DESCASC
Precipitaciones de 00:00 a 06:00 en mm
DESCASC
Precipitaciones de 06:00 a 12:00 en mm
DESCASC
Precipitaciones de 12:00 a 18:00 en mm
DESCASC
Precipitaciones de 18:00 a 24:00 en mm
DESCASC
25-04-2019 12.6 (17:30) 6 (23:20) 9.3 17.5 (00:50) 11.67 (00:50) 8.4 2.2 5 0.6 0.6
24-04-2019 12.9 (17:30) 2.5 (06:10) 7.7 19.17 (17:50) 12.78 (15:00) 0.8 0.8 0 0 0
23-04-2019 10.3 (17:10) 3.6 (21:10) 7 16.94 (17:40) 11.94 (17:30) 9.4 0 4.8 2 2.6
22-04-2019 15.6 (17:40) 5.2 (00:00) 10.4 9.44 (18:40) 5.56 (18:50) 4.9 3.7 1 0 0.2
21-04-2019 9.7 (14:00) 5.4 (00:00) 7.5 11.67 (14:40) 8.06 (13:50) 0.6 0.2 0.2 0.2 0
20-04-2019 9.2 (15:00) 6.2 (00:00) 7.7 25.83 (14:50) 17.5 (11:50) 19.6 12.2 5.8 1.4 0.2
19-04-2019 10 (14:50) 6 (00:00) 8 12.22 (22:40) 8.61 (22:40) 4.4 0.4 0 0.8 3.2
18-04-2019 13.9 (00:00) 7.3 (00:00) 10.6 8.89 (07:30) 5.28 (00:10) 31 11.4 17.2 2.2 0.2
17-04-2019 26.7 (15:10) 9.2 (00:00) 18 11.39 (19:40) 6.11 (23:59) 0 0 0 0 0
16-04-2019 23.8 (18:40) 8.1 (00:00) 15.9 8.61 (01:30) 5 (01:30) 0 0 0 0 0
15-04-2019 23 (16:50) 10.9 (00:00) 16.9 16.94 (16:00) 11.67 (16:40) 0 0 0 0 0
14-04-2019 21.5 (17:50) 6.7 (00:00) 14.1 8.89 (16:10) 5.28 (16:30) 0 0 0 0 0
13-04-2019 19 (18:30) 5.7 (00:00) 12.3 8.61 (16:00) 4.72 (17:50) 0 0 0 0 0
12-04-2019 14.8 (18:00) 2.7 (00:00) 8.8 8.06 (15:20) 4.72 (15:20) 0 0 0 0 0
11-04-2019 13.9 (18:20) 1.6 (00:00) 7.7 8.61 (14:40) 5.56 (13:00) 0.2 0 0 0.2 0
10-04-2019 10.7 (15:10) 4.3 (00:00) 7.5 10.83 (16:50) 5.83 (15:50) 3.2 0 0 0.8 2.4
09-04-2019 10.1 (19:00) 3.9 (00:00) 7 14.44 (17:20) 8.89 (17:20) 1.4 0.2 0 1.2 0
08-04-2019 12.5 (13:40) 7.6 (00:00) 10 12.22 (13:50) 7.5 (16:40) 8.8 1.4 0.4 5.2 1.8
07-04-2019 9.7 (17:40) 3.8 (00:00) 6.7 13.06 (07:20) 7.78 (07:20) 5.4 2.6 2.8 0 0
06-04-2019 8.3 (14:10) 2.3 (00:00) 5.3 14.72 (14:20) 9.44 (14:00) 4.8 1 0.6 3.2 0
05-04-2019 7.1 (00:00) 1.8 (00:00) 4.4 15.28 (14:40) 8.89 (14:40) 7 0 2.2 4.6 0.2
04-04-2019 14.6 (17:10) 1 (00:00) 7.8 9.17 (21:00) 6.39 (21:00) 0 0 0 0 0
03-04-2019 17.2 (17:20) 5.8 (00:00) 11.5 13.06 (19:00) 7.78 (13:20) 0 0 0 0 0
02-04-2019 16.7 (17:30) 7.4 (00:00) 12.1 8.33 (18:50) 5.28 (18:50) 0 0 0 0 0
01-04-2019 12.9 (18:40) 7.4 (00:00) 10.1 9.17 (20:30) 4.72 (13:20) 9.6 0 0 4.6 5
31-03-2019 11.3 (15:20) 6.2 (00:00) 8.8 9.44 (11:10) 7.22 (11:30) 7.6 2 5.4 0.2 0
30-03-2019 20.3 (16:50) 4 (00:00) 12.1 11.67 (18:30) 8.61 (18:30) 0 0 0 0 0
29-03-2019 18.4 (16:40) 1.7 (00:00) 10 10.28 (05:40) 7.5 (05:30) 0 0 0 0 0
28-03-2019 18.4 (14:00) 1.8 (00:00) 10.1 11.39 (15:40) 7.5 (06:50) 0 0 0 0 0
27-03-2019 15.8 (15:20) 0.7 (00:00) 8.3 12.78 (12:20) 8.33 (18:40) 0 0 0 0 0

Gráficas

Temp. máximas Temp. mínimas Temp. medias Precipitaciones Rachas de viento máximas Velocidades máximas media en intervalos de 10 minutos

Datos horarios

Fecha y hora oficial Temperatura (ºC) Velocidad del viento (km/h) Dirección del viento Racha (km/h) Dirección de racha Precipitación (mm) Presión (hPa) Tendencia (hPa) Humedad (%)
2019-04-25 23:00:00 6.3 9 Oeste 24 Oeste 0 -- -- 89
2019-04-25 22:00:00 6.7 12 Noroeste 31 Noroeste 0.4 -- -- 89
2019-04-25 21:00:00 7.9 14 Noroeste 33 Noroeste 0.2 -- -- 89
2019-04-25 20:00:00 10.4 19 Noroeste 37 Noroeste 0 -- -- 67
2019-04-25 19:00:00 11.3 22 Oeste 41 Noroeste 0 -- -- 64
2019-04-25 18:00:00 11 25 Noroeste 51 Oeste 0 -- -- 73
2019-04-25 17:00:00 11.9 23 Oeste 36 Oeste 0.2 -- -- 75
2019-04-25 16:00:00 9.8 22 Oeste 47 Sudoeste 0.4 -- -- 79
2019-04-25 15:00:00 10.7 28 Oeste 45 Oeste 0 -- -- 66
2019-04-25 14:00:00 9.4 24 Oeste 36 Sudoeste 0 -- -- 82
2019-04-25 13:00:00 8.3 15 Oeste 33 Oeste 0 -- -- 91
2019-04-25 12:00:00 7 18 Oeste 31 Oeste 0.2 -- -- 94
2019-04-25 11:00:00 6.3 13 Noroeste 35 Noroeste 0.4 -- -- 97
2019-04-25 10:00:00 6.4 23 Noroeste 43 Noroeste 0.4 -- -- 97
2019-04-25 09:00:00 7.6 17 Oeste 32 Noroeste 0.6 -- -- 98
2019-04-25 08:00:00 7.5 15 Oeste 27 Noroeste 2.4 -- -- 98
2019-04-25 07:00:00 7.2 8 Oeste 32 Oeste 1 -- -- 98
2019-04-25 06:00:00 7.2 20 Oeste 54 Sudoeste 2.2 -- -- 96
2019-04-25 05:00:00 9.6 39 Sudoeste 57 Sudoeste 0 -- -- 96
2019-04-25 04:00:00 9.5 36 Sudoeste 60 Sudoeste 0 -- -- 96
2019-04-25 03:00:00 9.4 39 Sudoeste 59 Sudoeste 0 -- -- 95
2019-04-25 02:00:00 9.2 33 Sudoeste 56 Sudoeste 0 -- -- 95
2019-04-25 01:00:00 9.1 34 Sudoeste 63 Sudoeste 0 -- -- 95
2019-04-25 00:00:00 9.1 35 Sudoeste 59 Sudoeste 0 -- -- 95
2019-04-24 23:00:00 9.3 39 Sudoeste 62 Sudoeste 0 -- -- 94
2019-04-24 22:00:00 9.3 25 Sudoeste 41 Sudoeste 0 -- -- 95
2019-04-24 21:00:00 9.4 23 Sudoeste 41 Sudoeste 0 -- -- 94
2019-04-24 20:00:00 10 28 Sudoeste 53 Sudoeste 0 -- -- 89
2019-04-24 19:00:00 12.1 36 Sudoeste 65 Sudoeste 0 -- -- 78
2019-04-24 18:00:00 12.7 44 Sudoeste 69 Sudoeste 0 -- -- 74
2019-04-24 17:00:00 12.4 41 Sudoeste 65 Sudoeste 0 -- -- 72
2019-04-24 16:00:00 11.4 33 Sudoeste 63 Sudoeste 0 -- -- 74
2019-04-24 15:00:00 11.7 46 Sudoeste 66 Sudoeste 0 -- -- 77
2019-04-24 14:00:00 10.1 40 Sudoeste 61 Sudoeste 0 -- -- 78
2019-04-24 13:00:00 9.3 42 Sudoeste 63 Sudoeste 0 -- -- 86
2019-04-24 12:00:00 7.1 33 Sudoeste 53 Sudoeste 0 -- -- 90
2019-04-24 11:00:00 6.2 33 Sudoeste 48 Sudoeste 0 -- -- 91
2019-04-24 10:00:00 5.6 26 Sudoeste 44 Sudoeste 0 -- -- 92
2019-04-24 09:00:00 4.8 29 Sudoeste 38 Sudoeste 0 -- -- 96
2019-04-24 08:00:00 3.2 17 Sudoeste 31 Sudoeste 0 -- -- 97
2019-04-24 07:00:00 2.8 22 Sudoeste 33 Sudoeste 0 -- -- 97
2019-04-24 06:00:00 2.6 15 Sudoeste 26 Sudoeste 0 -- -- 96
2019-04-24 05:00:00 3.3 20 Sudoeste 27 Sudoeste 0 -- -- 96
2019-04-24 04:00:00 3.1 13 Sudoeste 19 Sudoeste 0 -- -- 95
2019-04-24 03:00:00 3.5 14 Sudoeste 30 Oeste 0 -- -- 94
2019-04-24 02:00:00 3.6 15 Sudoeste 32 Sudoeste 0.6 -- -- 94
2019-04-24 01:00:00 3.3 10 Sudoeste 38 Sudoeste 0.2 -- -- 94
2019-04-24 00:00:00 3.7 15 Sudoeste 42 Oeste 0.8 -- -- 94
2019-04-23 23:00:00 4.1 22 Oeste 36 Oeste 0.2 -- -- 91
2019-04-23 22:00:00 4 13 Sudoeste 35 Oeste 0.2 -- -- 92
2019-04-23 21:00:00 3.9 24 Oeste 44 Noroeste 1.4 -- -- 90
2019-04-23 20:00:00 7.5 26 Sudoeste 41 Oeste 0 -- -- 73
2019-04-23 19:00:00 8.1 16 Sudoeste 39 Sudoeste 0 -- -- 78
2019-04-23 18:00:00 7.2 35 Sudoeste 61 Sudoeste 0 -- -- 74
2019-04-23 17:00:00 10.1 33 Sudoeste 49 Sudoeste 0 -- -- 70
2019-04-23 16:00:00 8.9 30 Sudoeste 50 Sudoeste 0 -- -- 76
2019-04-23 15:00:00 8.8 28 Oeste 42 Sudoeste 0 -- -- 84
2019-04-23 14:00:00 8 29 Sudoeste 44 Sudoeste 0.2 -- -- 93
2019-04-23 13:00:00 8.1 29 Sudoeste 50 Sudoeste 1.8 -- -- 92
2019-04-23 12:00:00 8.7 22 Sudoeste 38 Sudoeste 0.2 -- -- 91
2019-04-23 11:00:00 7.7 19 Oeste 57 Sudoeste 3 -- -- 91
2019-04-23 10:00:00 8.5 19 Sudoeste 38 Sudoeste 0.4 -- -- 92
2019-04-23 09:00:00 8.9 25 Sudoeste 32 Sudoeste 1.2 -- -- 90
2019-04-23 08:00:00 8.5 18 Sudoeste 29 Sudoeste 0 -- -- 90
2019-04-23 07:00:00 8.3 18 Sudoeste 36 Sudoeste 0 -- -- 91
2019-04-23 06:00:00 8 15 Sudoeste 31 Sudoeste 0 -- -- 92
2019-04-23 05:00:00 8.1 23 Sudoeste 36 Sudoeste 0 -- -- 91
2019-04-23 04:00:00 8.4 24 Sudoeste 37 Sudoeste 0 -- -- 89
2019-04-23 03:00:00 8.4 21 Sudoeste 32 Sudoeste 0 -- -- 90
2019-04-23 02:00:00 9.3 17 Sudoeste 28 Sudoeste 0 -- -- 88
2019-04-23 01:00:00 9.3 13 Sur 20 Sudoeste 0 -- -- 88
2019-04-23 00:00:00 9.6 12 Sur 24 Sur 0 -- -- 87
2019-04-22 23:00:00 9.8 12 Sur 21 Sudoeste 0 -- -- 87
2019-04-22 22:00:00 10.5 13 Sudoeste 28 Sudoeste 0 -- -- 81
2019-04-22 21:00:00 11 15 Sudoeste 24 Sudoeste 0 -- -- 79
2019-04-22 20:00:00 12 12 Sudoeste 26 Sudoeste 0.2 -- -- 76
2019-04-22 19:00:00 13 18 Sudoeste 34 Sudoeste 0 -- -- 72
2019-04-22 18:00:00 15.1 15 Oeste 27 Oeste 0 -- -- 60
2019-04-22 17:00:00 14.1 11 Oeste 28 Oeste 0 -- -- 68
2019-04-22 16:00:00 12.6 19 Oeste 30 Oeste 0 -- -- 69
2019-04-22 15:00:00 12.9 14 Oeste 28 Oeste 0 -- -- 73
2019-04-22 14:00:00 11.7 13 Oeste 23 Oeste 0 -- -- 78
2019-04-22 13:00:00 10.7 9 Oeste 21 Oeste 0 -- -- 83
2019-04-22 12:00:00 9.8 9 Noroeste 15 Norte 0.2 -- -- 87
2019-04-22 11:00:00 9 9 Noroeste 15 Noroeste 0 -- -- 91
2019-04-22 10:00:00 7.4 6 Norte 11 Norte 0 -- -- 99
2019-04-22 09:00:00 6.7 6 Norte 9 Norte 0.4 -- -- 99
2019-04-22 08:00:00 6 7 Norte 10 Norte 0.4 -- -- 98
2019-04-22 07:00:00 5.7 6 Norte 9 Norte 0 -- -- 98
2019-04-22 06:00:00 5.5 7 Nordeste 10 Nordeste 0 -- -- 97
2019-04-22 05:00:00 5.5 6 Nordeste 11 Nordeste 0 -- -- 97
2019-04-22 04:00:00 5.4 9 Nordeste 19 Este 0 -- -- 96
2019-04-22 03:00:00 5.9 11 Nordeste 20 Nordeste -- -- -- 97
2019-04-22 02:00:00 6.6 12 Nordeste 17 Nordeste 1.6 -- -- 98
2019-04-22 01:00:00 6.8 7 Nordeste 14 Nordeste 0.6 -- -- 98
2019-04-22 00:00:00 6.8 9 Nordeste 13 Nordeste 0 -- -- 98
2019-04-21 23:00:00 7 9 Nordeste 13 Nordeste 0 -- -- 98
2019-04-21 22:00:00 7 7 Norte 12 Norte 0 -- -- 98
2019-04-21 21:00:00 7 6 Norte 17 Nordeste 0 -- -- 96
2019-04-21 20:00:00 7.3 10 Nordeste 24 Este 0 -- -- 92
2019-04-21 19:00:00 8.2 17 Este 27 Este 0 -- -- 85
2019-04-21 18:00:00 8.6 16 Nordeste 29 Este 0 -- -- 87
2019-04-21 17:00:00 8.8 16 Nordeste 28 Nordeste 0.2 -- -- 86
2019-04-21 16:00:00 8.8 22 Nordeste 31 Nordeste 0 -- -- 86
2019-04-21 15:00:00 8.6 23 Este 42 Este 0 -- -- 81
2019-04-21 14:00:00 9.7 25 Este 39 Este 0 -- -- 78
2019-04-21 13:00:00 9.3 23 Este 35 Este 0 -- -- 80
2019-04-21 12:00:00 8.1 20 Este 36 Este 0 -- -- 87
2019-04-21 11:00:00 7 15 Este 24 Nordeste 0.2 -- -- 89
2019-04-21 10:00:00 6.1 9 Nordeste 19 Nordeste 0 -- -- 92
2019-04-21 09:00:00 5.6 11 Nordeste 24 Nordeste 0 -- -- 94
2019-04-21 08:00:00 5.4 15 Nordeste 26 Nordeste 0 -- -- 95
2019-04-21 07:00:00 5.5 16 Nordeste 26 Este 0 -- -- 94
2019-04-21 06:00:00 5.7 13 Este 22 Este 0 -- -- 93
2019-04-21 05:00:00 5.9 14 Este 21 Este 0 -- -- 94
2019-04-21 04:00:00 5.9 18 Nordeste 34 Este 0.2 -- -- 93
2019-04-21 03:00:00 6.3 24 Este 39 Este 0 -- -- 90
2019-04-21 02:00:00 7.1 28 Este 39 Este 0 -- -- 81
2019-04-21 01:00:00 7.4 26 Este 41 Este 0 -- -- 80
2019-04-21 00:00:00 7.6 26 Este 36 Este 0 -- -- 80
2019-04-20 23:00:00 7.8 25 Este 40 Nordeste 0 -- -- 81
2019-04-20 22:00:00 8.1 31 Este 44 Este 0 -- -- 79
2019-04-20 21:00:00 8.2 26 Este 55 Este 0.2 -- -- 81
2019-04-20 20:00:00 8.5 36 Este 60 Este 0 -- -- 82
2019-04-20 19:00:00 8.9 39 Este 69 Este 0 -- -- 82
2019-04-20 18:00:00 8.9 50 Este 72 Este 0 -- -- 81
2019-04-20 17:00:00 8.8 53 Este 72 Este 0.2 -- -- 86
2019-04-20 16:00:00 8.6 43 Este 84 Este 0.2 -- -- 90
2019-04-20 15:00:00 9.2 55 Este 93 Este 0.2 -- -- 85
2019-04-20 14:00:00 8 50 Este 78 Este 0.6 -- -- 90
2019-04-20 13:00:00 7.8 45 Este 81 Este 0.2 -- -- 91
2019-04-20 12:00:00 7.4 57 Este 84 Este 1 -- -- 89
2019-04-20 11:00:00 7.8 41 Este 66 Este 0.2 -- -- 89
2019-04-20 10:00:00 7.2 39 Este 59 Este 2.6 -- -- 91
2019-04-20 09:00:00 7.5 34 Este 49 Este 0.6 -- -- 89
2019-04-20 08:00:00 7.4 26 Este 43 Este 1.2 -- -- 90
2019-04-20 07:00:00 7.3 23 Este 36 Este 0.2 -- -- 98
2019-04-20 06:00:00 6.6 18 Norte 31 Nordeste 1.6 -- -- 99
2019-04-20 05:00:00 6.4 8 Norte 20 Nordeste 2.2 -- -- 99
2019-04-20 04:00:00 6.2 16 Nordeste 26 Nordeste 4.2 -- -- 98
2019-04-20 03:00:00 6.2 13 Nordeste 28 Nordeste 3 -- -- 98
2019-04-20 02:00:00 6.3 23 Nordeste 39 Este 0.4 -- -- 96
2019-04-20 01:00:00 6.5 24 Este 39 Este 0.8 -- -- 96
2019-04-20 00:00:00 6.8 26 Este 40 Este 0.4 -- -- 94
2019-04-19 23:00:00 6.3 29 Este 44 Este 0 -- -- 95
2019-04-19 22:00:00 6 27 Este 38 Este 0.2 -- -- 94
2019-04-19 21:00:00 6.1 28 Este 39 Este 0.2 -- -- 93
2019-04-19 20:00:00 6.3 25 Este 40 Este 1 -- -- 93
2019-04-19 19:00:00 7.2 23 Este 38 Este 1.4 -- -- 93
2019-04-19 18:00:00 7.9 23 Este 32 Este 0.2 -- -- 93
2019-04-19 17:00:00 8.7 18 Este 24 Este 0 -- -- 93
2019-04-19 16:00:00 9.6 16 Este 21 Este 0.2 -- -- 84
2019-04-19 15:00:00 10 8 Nordeste 15 Nordeste 0 -- -- 83
2019-04-19 14:00:00 9.2 9 Este 15 Este 0.2 -- -- 87
2019-04-19 13:00:00 8.4 12 Este 18 Este 0.2 -- -- 89
2019-04-19 12:00:00 8.8 9 Sudeste 16 Este 0 -- -- 88
2019-04-19 11:00:00 8.3 2 Sur 8 Sur 0 -- -- 91
2019-04-19 10:00:00 8.1 3 Sur 10 Sudeste 0 -- -- 93
2019-04-19 09:00:00 7.1 4 Sur 13 Sudeste 0 -- -- 95
2019-04-19 08:00:00 6.6 4 Sur 10 Sur 0 -- -- 95
2019-04-19 07:00:00 6.7 6 Sudoeste 19 Sudoeste 0 -- -- 95
2019-04-19 06:00:00 6.9 9 Sudoeste 14 Sur 0 -- -- 96
2019-04-19 05:00:00 7.1 6 Sur 17 Sudoeste 0.2 -- -- 96
2019-04-19 04:00:00 7.5 10 Sudoeste 19 Sudoeste 0.2 -- -- 95
2019-04-19 03:00:00 7.7 8 Sur 17 Sur 0 -- -- 95
2019-04-19 02:00:00 7.5 6 Sudoeste 17 Sudoeste 0 -- -- 94
2019-04-19 01:00:00 7.5 8 Sur 15 Sudoeste 0 -- -- 93
2019-04-19 00:00:00 7.8 4 Sur 15 Oeste 0 -- -- 92
2019-04-18 23:00:00 8.1 12 Sudoeste 22 Oeste 0.2 -- -- 92
2019-04-18 22:00:00 8.5 15 Oeste 23 Oeste 0 -- -- 91
2019-04-18 21:00:00 9.1 15 Oeste 24 Oeste 0 -- -- 89
2019-04-18 20:00:00 9.6 14 Oeste 27 Oeste 0 -- -- 83
2019-04-18 19:00:00 10.7 15 Oeste 28 Oeste 0 -- -- 78
2019-04-18 18:00:00 11 10 Sudoeste 23 Sudoeste 0 -- -- 76
2019-04-18 17:00:00 11.9 11 Oeste 20 Sudoeste 0 -- -- 74
2019-04-18 16:00:00 10.3 8 Sudoeste 18 Sudoeste 0 -- -- 83
2019-04-18 15:00:00 10.1 6 Sur 15 Sudeste 0 -- -- 86
2019-04-18 14:00:00 8.3 9 Sudeste 18 Sudeste 0.8 -- -- 92
2019-04-18 13:00:00 7.6 8 Sudeste 16 Sudeste 1.4 -- -- 95
2019-04-18 12:00:00 7.5 8 Sur 14 Sudeste 1.4 -- -- 93
2019-04-18 11:00:00 7.6 5 Sur 18 Sudoeste 4.6 -- -- 92
2019-04-18 10:00:00 8.1 10 Sudoeste 23 Sudoeste 4.2 -- -- 93
2019-04-18 09:00:00 8.6 14 Sudoeste 22 Sudoeste 3 -- -- 93
2019-04-18 08:00:00 8.7 9 Noroeste 32 Oeste 2 -- -- 93
2019-04-18 07:00:00 10.4 7 Sudeste 19 Sudeste 2 -- -- 95
2019-04-18 06:00:00 10.4 13 Sudeste 22 Sur 5.2 -- -- 94
2019-04-18 05:00:00 10.8 8 Sudeste 15 Sudeste 4.2 -- -- 93
2019-04-18 04:00:00 11.3 5 Sur 12 Sur 1.4 -- -- 91
2019-04-18 03:00:00 11.6 4 Sur 17 Sur 0.4 -- -- 88
2019-04-18 02:00:00 12.3 7 Sur 15 Sudoeste 0.2 -- -- 83
2019-04-18 01:00:00 13.2 13 Sudoeste 28 Sudoeste 0 -- -- 73
2019-04-18 00:00:00 13.9 22 Sudoeste 30 Sudoeste 0 -- -- 70
2019-04-17 23:00:00 14.3 4 Sur 25 Sudoeste 0 -- -- 65
2019-04-17 22:00:00 16.1 14 Sudoeste 21 Sudoeste 0 -- -- 60
2019-04-17 21:00:00 17.6 5 Norte 29 Noroeste 0 -- -- 51
2019-04-17 20:00:00 19.3 15 Noroeste 41 Sur 0 -- -- 44
2019-04-17 19:00:00 21.7 16 Sudeste 35 Sur 0 -- -- 41
2019-04-17 18:00:00 22.8 12 Sur 32 Sur 0 -- -- 38
2019-04-17 17:00:00 24.8 16 Sudeste 34 Sudeste 0 -- -- 35
2019-04-17 16:00:00 25.6 16 Sur 32 Sur 0 -- -- 34
2019-04-17 15:00:00 26.2 15 Sur 28 Sudeste 0 -- -- 25
2019-04-17 14:00:00 24.8 12 Sur 31 Sur 0 -- -- 31
2019-04-17 13:00:00 24.2 19 Sur 32 Sur 0 -- -- 29
2019-04-17 12:00:00 23.3 16 Sur 33 Sur 0 -- -- 34
2019-04-17 11:00:00 20.6 12 Sur 27 Sudeste 0 -- -- 40
2019-04-17 10:00:00 17.3 12 Sudeste 24 Sur 0 -- -- 48
2019-04-17 09:00:00 12.9 10 Sudeste 19 Sudeste 0 -- -- 63
2019-04-17 08:00:00 9.5 10 Sudeste 17 Sudeste 0 -- -- 70
2019-04-17 07:00:00 10.1 10 Sudeste 17 Sudeste 0 -- -- 68
2019-04-17 06:00:00 9.4 6 Sudeste 15 Sur 0 -- -- 70
2019-04-17 05:00:00 9.4 10 Sur 15 Sur 0 -- -- 73
2019-04-17 04:00:00 10.4 8 Sudeste 14 Sudeste 0 -- -- 73
2019-04-17 03:00:00 10.8 8 Sudeste 14 Sudeste 0 -- -- 74
2019-04-17 02:00:00 11.1 6 Sur 15 Sur 0 -- -- 75
2019-04-17 01:00:00 11.7 7 Sur 13 Sur 0 -- -- 72
2019-04-17 00:00:00 12.1 9 Sudeste 14 Sur 0 -- -- 65
2019-04-16 23:00:00 14.2 6 Sur 14 Sur 0 -- -- 52
2019-04-16 22:00:00 17.5 0 Calma 3 Nordeste 0 -- -- 29
2019-04-16 21:00:00 19.7 2 Noroeste 13 Oeste 0 -- -- 29
2019-04-16 20:00:00 22 8 Sudoeste 22 Sudoeste 0 -- -- 27
2019-04-16 19:00:00 23.3 15 Sudoeste 24 Sudoeste 0 -- -- 23
2019-04-16 18:00:00 23.4 10 Sudoeste 23 Sudoeste 0 -- -- 23
2019-04-16 17:00:00 22.9 10 Sur 28 Sudoeste 0 -- -- 26
2019-04-16 16:00:00 21.7 9 Sur 19 Sudoeste 0 -- -- 28
2019-04-16 15:00:00 19.9 7 Sudoeste 20 Sudoeste 0 -- -- 37
2019-04-16 14:00:00 18.1 4 Este 25 Este 0 -- -- 37
2019-04-16 13:00:00 16.4 10 Este 22 Este 0 -- -- 45
2019-04-16 12:00:00 15.3 10 Este 21 Este 0 -- -- 50
2019-04-16 11:00:00 13.6 6 Sudeste 20 Este 0 -- -- 55
2019-04-16 10:00:00 11.5 5 Este 10 Este 0 -- -- 76
2019-04-16 09:00:00 9.5 4 Sur 8 Sur 0 -- -- 83
2019-04-16 08:00:00 8.1 3 Sudoeste 5 Oeste 0 -- -- 86
2019-04-16 07:00:00 8.2 0 Calma 4 Noroeste 0 -- -- 86
2019-04-16 06:00:00 8.3 3 Noroeste 9 Noroeste 0 -- -- 83
2019-04-16 05:00:00 9 5 Noroeste 12 Oeste 0 -- -- 81
2019-04-16 04:00:00 9.4 6 Oeste 15 Noroeste 0 -- -- 79
2019-04-16 03:00:00 10.3 10 Noroeste 19 Noroeste 0 -- -- 73
2019-04-16 02:00:00 11.6 14 Noroeste 31 Noroeste 0 -- -- 68
2019-04-16 01:00:00 12.6 13 Noroeste 28 Noroeste 0 -- -- 68
2019-04-16 00:00:00 13.3 14 Noroeste 30 Noroeste 0 -- -- 69
2019-04-15 23:00:00 14.6 12 Noroeste 27 Noroeste 0 -- -- 59
2019-04-15 22:00:00 16 14 Oeste 33 Oeste 0 -- -- 56
2019-04-15 21:00:00 17.3 22 Sudoeste 42 Sudoeste 0 -- -- 35
2019-04-15 20:00:00 20 35 Sudoeste 59 Sudoeste 0 -- -- 26
2019-04-15 19:00:00 21.7 37 Sudoeste 59 Sudoeste 0 -- -- 30
2019-04-15 18:00:00 22.4 38 Sudoeste 59 Sudoeste 0 -- -- 30
2019-04-15 17:00:00 22.7 41 Sudoeste 58 Sudoeste 0 -- -- 29
2019-04-15 16:00:00 22.8 37 Sudoeste 61 Sudoeste 0 -- -- 31
2019-04-15 15:00:00 22.4 30 Sudoeste 49 Sudoeste 0 -- -- 34
2019-04-15 14:00:00 20.6 26 Sudoeste 40 Sudoeste 0 -- -- 43
2019-04-15 13:00:00 20 25 Sudoeste 40 Oeste 0 -- -- 46
2019-04-15 12:00:00 20.3 21 Sudoeste 33 Sudoeste 0 -- -- 50
2019-04-15 11:00:00 19.3 14 Sudoeste 25 Sudoeste 0 -- -- 54
2019-04-15 10:00:00 17.4 8 Sur 18 Sudeste 0 -- -- 62
2019-04-15 09:00:00 13.7 5 Sudeste 10 Sudeste 0 -- -- 76
2019-04-15 08:00:00 11.2 5 Sudeste 10 Sur 0 -- -- 80
2019-04-15 07:00:00 11.1 5 Sudeste 14 Sudeste 0 -- -- 80
2019-04-15 06:00:00 11.6 5 Sudeste 9 Sudeste 0 -- -- 78
2019-04-15 05:00:00 11.3 6 Sudeste 11 Sudeste 0 -- -- 80
2019-04-15 04:00:00 12.1 5 Sudeste 9 Sudeste 0 -- -- 78
2019-04-15 03:00:00 12.6 7 Sudeste 9 Sudeste 0 -- -- 75
2019-04-15 02:00:00 13.5 6 Sur 8 Sudeste 0 -- -- 70
2019-04-15 01:00:00 14.5 5 Sur 6 Sur 0 -- -- 68
2019-04-15 00:00:00 15 4 Oeste 7 Oeste 0 -- -- 67
2019-04-14 23:00:00 15.4 4 Noroeste 8 Noroeste 0 -- -- 65
2019-04-14 22:00:00 16.6 3 Noroeste 17 Oeste 0 -- -- 60
2019-04-14 21:00:00 18.3 11 Oeste 22 Oeste 0 -- -- 55
2019-04-14 20:00:00 20.4 12 Noroeste 25 Noroeste 0 -- -- 48
2019-04-14 19:00:00 20.8 15 Oeste 28 Oeste 0 -- -- 45
2019-04-14 18:00:00 21.1 14 Oeste 28 Oeste 0 -- -- 46
2019-04-14 17:00:00 20.9 13 Noroeste 32 Oeste 0 -- -- 47
2019-04-14 16:00:00 20.6 14 Sudoeste 27 Oeste 0 -- -- 48
2019-04-14 15:00:00 20.3 13 Oeste 26 Oeste 0 -- -- 51
2019-04-14 14:00:00 19.1 13 Oeste 26 Sudoeste 0 -- -- 54
2019-04-14 13:00:00 17.9 8 Oeste 26 Sudoeste 0 -- -- 56
2019-04-14 12:00:00 15.9 10 Sudoeste 22 Sudoeste 0 -- -- 59
2019-04-14 11:00:00 13.5 12 Sudoeste 18 Sudoeste 0 -- -- 66
2019-04-14 10:00:00 11.4 8 Sur 13 Sur 0 -- -- 70
2019-04-14 09:00:00 8.9 5 Sur 10 Sudeste 0 -- -- 76
2019-04-14 08:00:00 6.8 6 Sur 10 Sur 0 -- -- 78
2019-04-14 07:00:00 7.6 6 Sur 10 Sur 0 -- -- 72
2019-04-14 06:00:00 8.3 8 Sur 10 Sur 0 -- -- 69
2019-04-14 05:00:00 9 8 Sur 11 Sudoeste 0 -- -- 65
2019-04-14 04:00:00 9.4 7 Sur 9 Sudoeste 0 -- -- 64
2019-04-14 03:00:00 9.7 7 Sur 11 Sudoeste 0 -- -- 62
2019-04-14 02:00:00 9.7 6 Sur 10 Sur 0 -- -- 61
2019-04-14 01:00:00 10.9 5 Sur 13 Oeste 0 -- -- 57
2019-04-14 00:00:00 12.2 9 Oeste 14 Oeste 0 -- -- 55
2019-04-13 23:00:00 13 6 Oeste 16 Oeste 0 -- -- 53
2019-04-13 22:00:00 14.1 10 Oeste 17 Oeste 0 -- -- 49
2019-04-13 21:00:00 16 9 Noroeste 22 Oeste 0 -- -- 40
2019-04-13 20:00:00 18.2 13 Noroeste 27 Noroeste 0 -- -- 35
2019-04-13 19:00:00 18.9 13 Oeste 28 Oeste 0 -- -- 33
2019-04-13 18:00:00 18.9 15 Noroeste 28 Noroeste 0 -- -- 33
2019-04-13 17:00:00 18.6 10 Noroeste 26 Noroeste 0 -- -- 37
2019-04-13 16:00:00 18.1 12 Oeste 31 Oeste 0 -- -- 36
2019-04-13 15:00:00 17.2 7 Noroeste 25 Oeste 0 -- -- 39
2019-04-13 14:00:00 16.1 14 Noroeste 27 Oeste 0 -- -- 42
2019-04-13 13:00:00 15.2 9 Noroeste 25 Noroeste 0 -- -- 44
2019-04-13 12:00:00 14.3 9 Oeste 18 Oeste 0 -- -- 45
2019-04-13 11:00:00 11.5 5 Sur 11 Sur 0 -- -- 58
2019-04-13 10:00:00 8.4 6 Sur 10 Sur 0 -- -- 69
2019-04-13 09:00:00 6.4 6 Sur 8 Sur 0 -- -- 72
2019-04-13 08:00:00 5.9 3 Sur 5 Sur 0 -- -- 70
2019-04-13 07:00:00 6.3 4 Sudoeste 6 Oeste 0 -- -- 67
2019-04-13 06:00:00 6.8 4 Noroeste 6 Oeste 0 -- -- 66
2019-04-13 05:00:00 6.9 3 Oeste 7 Sudoeste 0 -- -- 65
2019-04-13 04:00:00 7.3 5 Sur 8 Sudoeste 0 -- -- 62
2019-04-13 03:00:00 8.2 6 Sudoeste 9 Sudoeste 0 -- -- 59
2019-04-13 02:00:00 8.2 6 Sur 8 Sur 0 -- -- 60
2019-04-13 01:00:00 8.6 5 Sur 12 Sur 0 -- -- 55
2019-04-13 00:00:00 9.8 2 Nordeste 11 Nordeste 0 -- -- 49
2019-04-12 23:00:00 10.5 6 Noroeste 13 Nordeste 0 -- -- 55
2019-04-12 22:00:00 11.5 5 Oeste 9 Oeste 0 -- -- 51
2019-04-12 21:00:00 12.9 4 Noroeste 15 Noroeste 0 -- -- 47
2019-04-12 20:00:00 14.2 10 Noroeste 18 Noroeste 0 -- -- 44
2019-04-12 19:00:00 14.6 10 Norte 22 Norte 0 -- -- 44
2019-04-12 18:00:00 14.8 9 Noroeste 23 Noroeste 0 -- -- 42
2019-04-12 17:00:00 14.2 13 Noroeste 25 Norte 0 -- -- 46
2019-04-12 16:00:00 13.7 14 Norte 29 Noroeste 0 -- -- 44
2019-04-12 15:00:00 13.2 13 Noroeste 28 Norte 0 -- -- 48
2019-04-12 14:00:00 12.6 10 Noroeste 22 Noroeste 0 -- -- 52
2019-04-12 13:00:00 11.6 12 Norte 22 Norte 0 -- -- 53
2019-04-12 12:00:00 10.4 10 Norte 17 Norte 0 -- -- 58
2019-04-12 11:00:00 8.5 8 Nordeste 14 Nordeste 0 -- -- 63
2019-04-12 10:00:00 6.6 7 Nordeste 13 Este 0 -- -- 70
2019-04-12 09:00:00 4.7 6 Nordeste 8 Nordeste 0 -- -- 79
2019-04-12 08:00:00 2.9 3 Nordeste 6 Nordeste 0 -- -- 78
2019-04-12 07:00:00 3.3 4 Norte 5 Norte 0 -- -- 75
2019-04-12 06:00:00 4.2 2 Noroeste 3 Sudoeste 0 -- -- 71
2019-04-12 05:00:00 4.4 0 Calma 8 Nordeste 0 -- -- 70
2019-04-12 04:00:00 4.6 7 Nordeste 8 Nordeste 0 -- -- 70
2019-04-12 03:00:00 5.4 6 Nordeste 8 Nordeste 0 -- -- 73
2019-04-12 02:00:00 6.2 2 Norte 8 Noroeste 0 -- -- 71
2019-04-12 01:00:00 6.9 4 Noroeste 9 Noroeste 0 -- -- 70
2019-04-12 00:00:00 7.6 4 Noroeste 10 Oeste 0 -- -- 68
2019-04-11 23:00:00 8 7 Oeste 17 Oeste 0 -- -- 67
2019-04-11 22:00:00 8.8 3 Norte 12 Este 0 -- -- 52
2019-04-11 21:00:00 10.2 7 Oeste 17 Norte 0 -- -- 55
2019-04-11 20:00:00 12.6 12 Noroeste 22 Norte 0 -- -- 44
2019-04-11 19:00:00 13.4 15 Norte 24 Nordeste 0 -- -- 41
2019-04-11 18:00:00 13.8 14 Norte 27 Norte 0 -- -- 42
2019-04-11 17:00:00 13 13 Noroeste 26 Norte 0 -- -- 47
2019-04-11 16:00:00 13 14 Noroeste 24 Noroeste 0 -- -- 54
2019-04-11 15:00:00 11.5 11 Norte 31 Norte 0 -- -- 59
2019-04-11 14:00:00 11.2 14 Norte 28 Nordeste 0 -- -- 59
2019-04-11 13:00:00 9.7 20 Norte 30 Norte 0.2 -- -- 66
2019-04-11 12:00:00 8.8 16 Norte 24 Nordeste 0 -- -- 72
2019-04-11 11:00:00 6.5 14 Norte 22 Norte 0 -- -- 86
2019-04-11 10:00:00 4.6 8 Norte 16 Norte 0 -- -- 98
2019-04-11 09:00:00 2.9 0 Calma 5 Noroeste 0 -- -- 96
2019-04-11 08:00:00 1.6 3 Noroeste 5 Noroeste 0 -- -- 97
2019-04-11 07:00:00 2.4 4 Sur 5 Sur 0 -- -- 96
2019-04-11 06:00:00 3.2 3 Oeste 5 Oeste 0 -- -- 96
2019-04-11 05:00:00 3.4 3 Sur 5 Sur 0 -- -- 95
2019-04-11 04:00:00 3.9 2 Oeste 6 Noroeste 0 -- -- 95
2019-04-11 03:00:00 4.2 4 Noroeste 7 Noroeste 0 -- -- 94
2019-04-11 02:00:00 4.3 3 Oeste 6 Sudoeste 0 -- -- 95
2019-04-11 01:00:00 4.3 3 Sur 7 Sudoeste 0 -- -- 94
2019-04-11 00:00:00 4.4 0 Calma 9 Oeste 0 -- -- 92
2019-04-10 23:00:00 4.9 4 Oeste 9 Oeste 0 -- -- 90
2019-04-10 22:00:00 4.9 3 Noroeste 10 Noroeste 0 -- -- 90
2019-04-10 21:00:00 5.6 5 Noroeste 9 Oeste 0 -- -- 90
2019-04-10 20:00:00 6 6 Oeste 25 Norte 1.2 -- -- 88
2019-04-10 19:00:00 5.9 21 Norte 35 Norte 1.2 -- -- 89
2019-04-10 18:00:00 9.6 12 Noroeste 27 Noroeste 0 -- -- 70
2019-04-10 17:00:00 8.3 14 Noroeste 39 Noroeste 0.8 -- -- 75
2019-04-10 16:00:00 10 18 Oeste 33 Oeste 0 -- -- 63
2019-04-10 15:00:00 10.2 15 Oeste 32 Oeste 0 -- -- 65
2019-04-10 14:00:00 8.4 16 Oeste 28 Oeste 0 -- -- 74
2019-04-10 13:00:00 6.9 11 Oeste 22 Oeste 0 -- -- 82
2019-04-10 12:00:00 6.1 11 Oeste 19 Oeste 0 -- -- 86
2019-04-10 11:00:00 5.4 11 Noroeste 23 Oeste 0 -- -- 87
2019-04-10 10:00:00 4.9 12 Oeste 26 Oeste 0 -- -- 91
2019-04-10 09:00:00 4.6 12 Oeste 24 Oeste 0 -- -- 93
2019-04-10 08:00:00 4.4 12 Oeste 26 Oeste 0 -- -- 94
2019-04-10 07:00:00 4.7 11 Oeste 24 Oeste 0 -- -- 93
2019-04-10 06:00:00 4.8 15 Oeste 28 Oeste 0 -- -- 94
2019-04-10 05:00:00 4.4 9 Oeste 21 Oeste 0 -- -- 94
2019-04-10 04:00:00 4.6 6 Oeste 18 Oeste 0 -- -- 93
2019-04-10 03:00:00 4.9 14 Oeste 22 Oeste 0 -- -- 91
2019-04-10 02:00:00 5.3 14 Oeste 23 Sudoeste 0 -- -- 90
2019-04-10 01:00:00 6 11 Sudoeste 17 Sudoeste 0 -- -- 90
2019-04-10 00:00:00 6 13 Sudoeste 24 Oeste 0 -- -- 88
2019-04-09 23:00:00 6.7 14 Oeste 30 Oeste 0 -- -- 83
2019-04-09 22:00:00 7.4 17 Oeste 33 Noroeste 0 -- -- 79
2019-04-09 21:00:00 8.2 16 Oeste 37 Noroeste 0 -- -- 76
2019-04-09 20:00:00 9.8 19 Oeste 49 Oeste 0 -- -- 70
2019-04-09 19:00:00 10.1 25 Noroeste 48 Noroeste 0 -- -- 72
2019-04-09 18:00:00 9.1 25 Oeste 52 Noroeste 0.2 -- -- 80
2019-04-09 17:00:00 9.5 19 Oeste 46 Oeste 0 -- -- 74
2019-04-09 16:00:00 8.5 28 Oeste 49 Oeste 1 -- -- 84
2019-04-09 15:00:00 8.2 22 Noroeste 40 Oeste 0 -- -- 80
2019-04-09 14:00:00 9.4 25 Oeste 42 Oeste 0 -- -- 61
2019-04-09 13:00:00 9.2 28 Oeste 42 Oeste 0 -- -- 69
2019-04-09 12:00:00 8 24 Oeste 42 Oeste 0 -- -- 74
2019-04-09 11:00:00 7.2 22 Oeste 35 Oeste 0 -- -- 82
2019-04-09 10:00:00 6.4 18 Oeste 29 Oeste 0 -- -- 89
2019-04-09 09:00:00 4.8 14 Oeste 21 Sudoeste 0 -- -- 96
2019-04-09 08:00:00 3.9 13 Oeste 19 Oeste 0 -- -- 96
2019-04-09 07:00:00 4.2 11 Oeste 27 Noroeste 0 -- -- 95
2019-04-09 06:00:00 4.2 13 Oeste 23 Oeste 0 -- -- 94
2019-04-09 05:00:00 4.7 16 Oeste 27 Oeste 0 -- -- 92
2019-04-09 04:00:00 5.3 13 Oeste 22 Oeste 0 -- -- 92
2019-04-09 03:00:00 6.2 11 Oeste 18 Oeste 0.2 -- -- 89
2019-04-09 02:00:00 7 13 Oeste 24 Oeste 0 -- -- 86
2019-04-09 01:00:00 7.4 13 Oeste 24 Oeste 0 -- -- 91
2019-04-09 00:00:00 7.9 13 Oeste 21 Sudoeste 0 -- -- 94
2019-04-08 23:00:00 8.4 14 Oeste 22 Sudoeste 0.2 -- -- 94
2019-04-08 22:00:00 8.3 15 Sudoeste 36 Sudoeste 1 -- -- 94
2019-04-08 21:00:00 9.2 22 Sudoeste 39 Sudoeste 0 -- -- 87
2019-04-08 20:00:00 10.9 18 Sudoeste 32 Sudoeste 0 -- -- 90
2019-04-08 19:00:00 10.6 21 Sudoeste 42 Sudoeste 0.6 -- -- 91
2019-04-08 18:00:00 10.5 23 Oeste 40 Oeste 1 -- -- 88
2019-04-08 17:00:00 10.8 24 Sudoeste 39 Sudoeste 1 -- -- 86
2019-04-08 16:00:00 10.2 25 Sudoeste 35 Oeste 2.6 -- -- 91
2019-04-08 15:00:00 10.8 14 Noroeste 37 Noroeste 0.2 -- -- 91
2019-04-08 14:00:00 10.7 24 Noroeste 44 Oeste 0.4 -- -- 83
2019-04-08 13:00:00 12 16 Oeste 33 Oeste 0 -- -- 77
2019-04-08 12:00:00 10.6 22 Oeste 34 Oeste 0 -- -- 83
2019-04-08 11:00:00 9.6 22 Oeste 31 Oeste 0.2 -- -- 91
2019-04-08 10:00:00 8.5 15 Oeste 24 Oeste 0 -- -- 97
2019-04-08 09:00:00 8 13 Oeste 21 Oeste 0 -- -- 98
2019-04-08 08:00:00 7.8 12 Oeste 23 Oeste 0 -- -- 98
2019-04-08 07:00:00 7.9 15 Oeste 26 Oeste 0.2 -- -- 98
2019-04-08 06:00:00 7.7 17 Sudoeste 27 Sudoeste 0.2 -- -- 98
2019-04-08 05:00:00 7.7 17 Sudoeste 24 Sudoeste 0 -- -- 97
2019-04-08 04:00:00 7.7 13 Sudoeste 27 Sudoeste 0 -- -- 97
2019-04-08 03:00:00 7.9 17 Sudoeste 24 Sudoeste 0 -- -- 97
2019-04-08 02:00:00 7.7 16 Sudoeste 24 Sudoeste 0.4 -- -- 97
2019-04-08 01:00:00 7.7 12 Sudoeste 24 Sudoeste 0.8 -- -- 96
2019-04-08 00:00:00 7.6 15 Sudoeste 25 Sudoeste 0 -- -- 95
2019-04-07 23:00:00 7.4 18 Sudoeste 26 Sudoeste 0 -- -- 93
2019-04-07 22:00:00 7.5 12 Sudoeste 23 Sudoeste 0 -- -- 90
2019-04-07 21:00:00 7.6 14 Sudoeste 31 Sudoeste 0 -- -- 89
2019-04-07 20:00:00 8.6 19 Oeste 31 Oeste 0 -- -- 81
2019-04-07 19:00:00 8.6 16 Oeste 35 Oeste 0 -- -- 76
2019-04-07 18:00:00 9.6 17 Oeste 33 Oeste 0 -- -- 69
2019-04-07 17:00:00 9.4 21 Oeste 40 Oeste 0 -- -- 71
2019-04-07 16:00:00 8.9 22 Oeste 39 Oeste 0 -- -- 75
2019-04-07 15:00:00 8.8 19 Noroeste 39 Oeste 0 -- -- 72
2019-04-07 14:00:00 8.4 19 Oeste 39 Noroeste 0 -- -- 72
2019-04-07 13:00:00 6.8 21 Noroeste 38 Oeste 0 -- -- 82
2019-04-07 12:00:00 5.8 19 Noroeste 39 Oeste 0 -- -- 87
2019-04-07 11:00:00 5.3 22 Oeste 36 Oeste 0 -- -- 92
2019-04-07 10:00:00 4.6 19 Oeste 39 Oeste 0 -- -- 95
2019-04-07 09:00:00 4.2 22 Oeste 40 Oeste 0.2 -- -- 94
2019-04-07 08:00:00 4 24 Oeste 47 Oeste 0.8 -- -- 95
2019-04-07 07:00:00 4 23 Oeste 45 Noroeste 1.8 -- -- 96
2019-04-07 06:00:00 3.9 17 Oeste 40 Oeste 2 -- -- 96
2019-04-07 05:00:00 3.9 23 Oeste 40 Oeste 0.6 -- -- 93
2019-04-07 04:00:00 4.1 17 Oeste 30 Oeste 0 -- -- 91
2019-04-07 03:00:00 3.9 19 Oeste 31 Oeste 0 -- -- 89
2019-04-07 02:00:00 3.8 17 Oeste 31 Oeste 0 -- -- 88
2019-04-07 01:00:00 3.8 16 Oeste 30 Oeste 0 -- -- 88
2019-04-07 00:00:00 3.9 17 Oeste 31 Oeste 0 -- -- 88
2019-04-06 23:00:00 4.1 22 Sudoeste 32 Oeste 0 -- -- 86
2019-04-06 22:00:00 4.4 20 Oeste 35 Oeste 0 -- -- 85
2019-04-06 21:00:00 4.6 22 Oeste 39 Oeste 0 -- -- 84
2019-04-06 20:00:00 4.6 20 Oeste 37 Oeste 0 -- -- 87
2019-04-06 19:00:00 4.9 24 Oeste 41 Sudoeste 0 -- -- 85
2019-04-06 18:00:00 5.8 33 Oeste 50 Sudoeste 0.8 -- -- 80
2019-04-06 17:00:00 7.1 22 Oeste 53 Oeste 0 -- -- 78
2019-04-06 16:00:00 5.7 31 Oeste 53 Oeste 0 -- -- 80
2019-04-06 15:00:00 4.9 23 Oeste 53 Oeste 2.2 -- -- 87
2019-04-06 14:00:00 7.7 34 Oeste 48 Oeste 0.2 -- -- 76
2019-04-06 13:00:00 7.1 28 Oeste 51 Sudoeste 0 -- -- 85
2019-04-06 12:00:00 4.2 27 Oeste 43 Sudoeste 0.4 -- -- 91
2019-04-06 11:00:00 4.8 21 Sudoeste 35 Oeste 0 -- -- 90
2019-04-06 10:00:00 3.7 23 Sudoeste 34 Sudoeste 0 -- -- 93
2019-04-06 09:00:00 3.1 21 Sudoeste 33 Oeste 0.2 -- -- 95
2019-04-06 08:00:00 2.7 21 Oeste 40 Oeste 0 -- -- 93
2019-04-06 07:00:00 2.6 20 Oeste 32 Oeste 0 -- -- 93
2019-04-06 06:00:00 2.5 19 Oeste 30 Oeste 0 -- -- 94
2019-04-06 05:00:00 2.7 20 Oeste 35 Oeste 0.2 -- -- 93
2019-04-06 04:00:00 2.9 19 Oeste 36 Oeste 0 -- -- 93
2019-04-06 03:00:00 2.8 20 Oeste 30 Oeste 0 -- -- 94
2019-04-06 02:00:00 2.8 17 Oeste 35 Oeste 0.2 -- -- 94
2019-04-06 01:00:00 2.7 20 Oeste 35 Oeste 0.6 -- -- 91
2019-04-06 00:00:00 3.8 17 Sudoeste 27 Oeste 0 -- -- 88
2019-04-05 23:00:00 3.4 9 Sudoeste 16 Sudoeste 0 -- -- 84
2019-04-05 22:00:00 3.4 8 Sudoeste 16 Oeste 0 -- -- 74
2019-04-05 21:00:00 4.2 10 Oeste 42 Noroeste 0 -- -- 74
2019-04-05 20:00:00 6.4 25 Noroeste 45 Noroeste 0 -- -- 61
2019-04-05 19:00:00 5.5 19 Sudoeste 40 Sudoeste 0.2 -- -- 89
2019-04-05 18:00:00 6.1 18 Sudoeste 26 Sudoeste 0 -- -- 83
2019-04-05 17:00:00 5.3 16 Oeste 27 Oeste 0.8 -- -- 93
2019-04-05 16:00:00 1.8 7 Sudoeste 44 Oeste 3.6 -- -- 93
2019-04-05 15:00:00 5.5 19 Sudoeste 55 Sudoeste 0 -- -- 90
2019-04-05 14:00:00 5.4 25 Sudoeste 44 Sudoeste 0 -- -- 90
2019-04-05 13:00:00 5.2 25 Sudoeste 46 Sudoeste 0.2 -- -- 90
2019-04-05 12:00:00 5.5 23 Sur 41 Sudoeste 0.8 -- -- 90
2019-04-05 11:00:00 5.2 18 Sudoeste 31 Sudoeste 1.4 -- -- 91
2019-04-05 10:00:00 5.4 17 Sudoeste 30 Sudoeste 0 -- -- 83
2019-04-05 09:00:00 4.9 17 Sudoeste 29 Sudoeste 0 -- -- 82
2019-04-05 08:00:00 4.8 13 Sudoeste 32 Sudoeste 0 -- -- 82
2019-04-05 07:00:00 4.7 12 Sudoeste 34 Sudoeste 0 -- -- 83
2019-04-05 06:00:00 4.6 23 Sudoeste 36 Sudoeste 0 -- -- 83
2019-04-05 05:00:00 4.7 19 Sudoeste 39 Sudoeste 0 -- -- 81
2019-04-05 04:00:00 5 27 Sudoeste 42 Sudoeste 0 -- -- 77
2019-04-05 03:00:00 5.5 21 Sudoeste 32 Sudoeste 0 -- -- 69
2019-04-05 02:00:00 6 19 Sudoeste 40 Sudoeste 0 -- -- 62
2019-04-05 01:00:00 6.4 15 Sudoeste 23 Sudoeste 0 -- -- 58
2019-04-05 00:00:00 7.1 12 Sudoeste 15 Sudoeste 0 -- -- 57
2019-04-04 23:00:00 7.7 8 Sur 21 Sudoeste 0 -- -- 51
2019-04-04 22:00:00 9.3 14 Sudoeste 30 Sudoeste 0 -- -- 43
2019-04-04 21:00:00 11 23 Sudoeste 33 Sudoeste 0 -- -- 41
2019-04-04 20:00:00 13.7 6 Oeste 15 Oeste 0 -- -- 35
2019-04-04 19:00:00 14.1 8 Noroeste 18 Oeste 0 -- -- 34
2019-04-04 18:00:00 14 8 Norte 25 Oeste 0 -- -- 34
2019-04-04 17:00:00 14.2 9 Oeste 22 Oeste 0 -- -- 34
2019-04-04 16:00:00 13.5 9 Oeste 20 Sudoeste 0 -- -- 33
2019-04-04 15:00:00 11.7 7 Nordeste 18 Nordeste 0 -- -- 37
2019-04-04 14:00:00 11.4 6 Este 18 Este 0 -- -- 38
2019-04-04 13:00:00 9.9 7 Nordeste 21 Norte 0 -- -- 38
2019-04-04 12:00:00 8.7 12 Nordeste 26 Este 0 -- -- 44
2019-04-04 11:00:00 7.3 17 Este 26 Este 0 -- -- 48
2019-04-04 10:00:00 5.5 19 Este 26 Este 0 -- -- 57
2019-04-04 09:00:00 3.2 13 Este 22 Este 0 -- -- 67
2019-04-04 08:00:00 1.5 18 Este 21 Este 0 -- -- 70
2019-04-04 07:00:00 1.4 19 Este 22 Este 0 -- -- 72
2019-04-04 06:00:00 1.7 13 Este 18 Nordeste 0 -- -- 72
2019-04-04 05:00:00 1.8 12 Nordeste 16 Nordeste 0 -- -- 71
2019-04-04 04:00:00 2.7 8 Nordeste 11 Norte 0 -- -- 67
2019-04-04 03:00:00 4.2 5 Norte 12 Norte 0 -- -- 65
2019-04-04 02:00:00 5.4 5 Norte 9 Norte 0 -- -- 61
2019-04-04 01:00:00 6.1 5 Norte 10 Norte 0 -- -- 60
2019-04-04 00:00:00 7.7 6 Norte 19 Noroeste 0 -- -- 56
2019-04-03 23:00:00 9.6 12 Norte 24 Noroeste 0 -- -- 63
2019-04-03 22:00:00 10.3 12 Noroeste 23 Noroeste 0 -- -- 55
2019-04-03 21:00:00 11.5 15 Noroeste 37 Noroeste 0 -- -- 51
2019-04-03 20:00:00 14.3 22 Noroeste 42 Noroeste 0 -- -- 43
2019-04-03 19:00:00 16 26 Noroeste 47 Noroeste 0 -- -- 37
2019-04-03 18:00:00 16.8 26 Oeste 44 Oeste 0 -- -- 35
2019-04-03 17:00:00 16.5 21 Oeste 41 Oeste 0 -- -- 37
2019-04-03 16:00:00 16.9 26 Oeste 44 Oeste 0 -- -- 40
2019-04-03 15:00:00 16.2 25 Oeste 41 Oeste 0 -- -- 43
2019-04-03 14:00:00 15.4 24 Oeste 42 Oeste 0 -- -- 47
2019-04-03 13:00:00 14 25 Oeste 40 Oeste 0 -- -- 52
2019-04-03 12:00:00 12.1 17 Oeste 29 Oeste 0 -- -- 65
2019-04-03 11:00:00 11.3 17 Oeste 25 Oeste 0 -- -- 75
2019-04-03 10:00:00 8.7 8 Sudoeste 15 Sur 0 -- -- 92
2019-04-03 09:00:00 6.7 9 Sur 14 Sur 0 -- -- 92
2019-04-03 08:00:00 5.8 9 Sur 12 Sur 0 -- -- 90
2019-04-03 07:00:00 6 9 Sur 13 Sur 0 -- -- 89
2019-04-03 06:00:00 6.7 9 Sur 12 Sudoeste 0 -- -- 88
2019-04-03 05:00:00 6.7 6 Sur 12 Sur 0 -- -- 89
2019-04-03 04:00:00 7.1 8 Sur 14 Sudoeste 0 -- -- 86
2019-04-03 03:00:00 7.7 7 Sur 11 Sudoeste 0 -- -- 86
2019-04-03 02:00:00 8.2 7 Sur 10 Sur 0 -- -- 85
2019-04-03 01:00:00 8.7 6 Sur 8 Sudeste 0 -- -- 83
2019-04-03 00:00:00 9.3 4 Sudeste 11 Nordeste 0 -- -- 80
2019-04-02 23:00:00 9.9 4 Sudoeste 12 Sur 0 -- -- 80
2019-04-02 22:00:00 9.8 5 Sur 15 Sur 0 -- -- 78
2019-04-02 21:00:00 12 5 Sudoeste 21 Noroeste 0 -- -- 72
2019-04-02 20:00:00 13 14 Noroeste 30 Noroeste 0 -- -- 67
2019-04-02 19:00:00 15.5 17 Oeste 30 Oeste 0 -- -- 52
2019-04-02 18:00:00 16.4 15 Oeste 26 Sudoeste 0 -- -- 47
2019-04-02 17:00:00 16.2 16 Oeste 24 Sudoeste 0 -- -- 53
2019-04-02 16:00:00 14.7 11 Oeste 22 Oeste 0 -- -- 64
2019-04-02 15:00:00 14.4 10 Noroeste 22 Oeste 0 -- -- 68
2019-04-02 14:00:00 12.4 6 Oeste 14 Noroeste 0 -- -- 73
2019-04-02 13:00:00 11.9 7 Oeste 17 Oeste 0 -- -- 79
2019-04-02 12:00:00 10.5 8 Oeste 15 Oeste 0 -- -- 87
2019-04-02 11:00:00 8.8 11 Sudoeste 16 Sudoeste 0 -- -- 95
2019-04-02 10:00:00 8 7 Sudoeste 16 Sudoeste 0 -- -- 96
2019-04-02 09:00:00 7.5 8 Sudoeste 16 Sudoeste 0 -- -- 97
2019-04-02 08:00:00 7.4 8 Sudoeste 16 Sudoeste 0 -- -- 96
2019-04-02 07:00:00 8 8 Sudoeste 16 Sudoeste 0 -- -- 95
2019-04-02 06:00:00 8.4 6 Sudoeste 16 Oeste 0 -- -- 95
2019-04-02 05:00:00 8.6 11 Sudoeste 21 Sudoeste 0 -- -- 96
2019-04-02 04:00:00 8.8 11 Sudoeste 18 Sudoeste 0 -- -- 95
2019-04-02 03:00:00 9 9 Sudoeste 16 Sur 0 -- -- 94
2019-04-02 02:00:00 8.9 6 Sudoeste 12 Sur 0 -- -- 93
2019-04-02 01:00:00 8.5 4 Sur 8 Sur 0 -- -- 91
2019-04-02 00:00:00 8.2 4 Sudeste 9 Este 0 -- -- 91
2019-04-01 23:00:00 8.2 6 Este 11 Nordeste 0 -- -- 90
2019-04-01 22:00:00 8.7 7 Nordeste 11 Norte 0.2 -- -- 90
2019-04-01 21:00:00 9.8 2 Nordeste 33 Oeste 4.6 -- -- 84
2019-04-01 20:00:00 12 4 Este 7 Este 0 -- -- 72
2019-04-01 19:00:00 12.9 5 Este 11 Nordeste 0.2 -- -- 70
2019-04-01 18:00:00 12.4 8 Norte 13 Nordeste 0 -- -- 75
2019-04-01 17:00:00 10.9 7 Norte 10 Norte 0.2 -- -- 91
2019-04-01 16:00:00 9.4 4 Norte 10 Noroeste 3 -- -- 94
2019-04-01 15:00:00 9 7 Oeste 17 Noroeste 1.4 -- -- 89
2019-04-01 14:00:00 11.4 9 Noroeste 24 Oeste 0 -- -- 78
2019-04-01 13:00:00 11.8 9 Noroeste 16 Sur 0 -- -- 78
2019-04-01 12:00:00 11.8 12 Sudoeste 19 Sudoeste 0 -- -- 85
2019-04-01 11:00:00 10.1 9 Sudoeste 13 Sudoeste 0 -- -- 90
2019-04-01 10:00:00 9 5 Sur 9 Sur 0 -- -- 95
2019-04-01 09:00:00 8.3 2 Sudeste 6 Sur 0 -- -- 97
2019-04-01 08:00:00 7.6 2 Sur 4 Sudoeste 0 -- -- 97
2019-04-01 07:00:00 7.4 2 Nordeste 4 Norte 0 -- -- 96
2019-04-01 06:00:00 7.8 0 Calma 10 Sudoeste 0 -- -- 94
2019-04-01 05:00:00 8.1 2 Sur 6 Sur 0 -- -- 94
2019-04-01 04:00:00 7.9 3 Sur 6 Sur 0 -- -- 92
2019-04-01 03:00:00 8.3 0 Calma 8 Sur 0 -- -- 93
2019-04-01 02:00:00 8.3 3 Sur 9 Sudeste 0 -- -- 93
2019-04-01 01:00:00 8.1 6 Sudeste 11 Este 0 -- -- 94
2019-04-01 00:00:00 8.1 6 Sudeste 13 Sudeste 0 -- -- 94
2019-03-31 23:00:00 8 9 Este 19 Este 0 -- -- 93
2019-03-31 22:00:00 8.3 11 Este 22 Este 0 -- -- 92
2019-03-31 21:00:00 8.4 15 Este 21 Este 0 -- -- 92
2019-03-31 20:00:00 8.8 16 Este 23 Este 0 -- -- 88
2019-03-31 19:00:00 9.1 18 Este 24 Este 0 -- -- 87
2019-03-31 18:00:00 10.7 7 Sudeste 15 Sudeste 0 -- -- 80
2019-03-31 17:00:00 10.3 9 Sudeste 18 Sudeste 0 -- -- 82
2019-03-31 16:00:00 10.9 8 Sudeste 21 Este 0.2 -- -- 81
2019-03-31 15:00:00 10.8 8 Sudeste 27 Este 0 -- -- 81
2019-03-31 14:00:00 10.5 15 Sudeste 33 Este 0 -- -- 84
2019-03-31 13:00:00 9.1 23 Este 34 Este 0 -- -- 88
2019-03-31 12:00:00 8.1 23 Este 34 Este 0.2 -- -- 88
2019-03-31 11:00:00 7 25 Este 33 Este 0.8 -- -- 94
2019-03-31 10:00:00 6.3 23 Este 32 Este 1.6 -- -- 94
2019-03-31 09:00:00 7.1 16 Este 22 Este 1 -- -- 92
2019-03-31 08:00:00 8.1 6 Sudeste 12 Este 0.8 -- -- 92
2019-03-31 07:00:00 8.3 5 Sudeste 11 Sur 1 -- -- 90
2019-03-31 06:00:00 8.8 3 Sur 7 Sur 1 -- -- 86
2019-03-31 05:00:00 9.3 5 Sur 17 Sur 1 -- -- 82
2019-03-31 03:00:00 9 8 Sudeste 13 Sudeste 0 -- -- 69
2019-03-31 01:00:00 9 8 Sudeste 18 Este 0 -- -- 69
2019-03-31 00:00:00 8.7 11 Sudeste 21 Este 0 -- -- 69
2019-03-30 23:00:00 10.1 7 Sudeste 21 Este 0 -- -- 64
2019-03-30 22:00:00 10.3 15 Este 26 Este 0 -- -- 66
2019-03-30 21:00:00 11 22 Este 35 Este 0 -- -- 66
2019-03-30 20:00:00 12.1 20 Sudeste 33 Este 0 -- -- 63
2019-03-30 19:00:00 15 14 Sudeste 42 Este 0 -- -- 52
2019-03-30 18:00:00 17.5 23 Este 35 Este 0 -- -- 41
2019-03-30 17:00:00 20.2 8 Noroeste 18 Nordeste 0 -- -- 36
2019-03-30 16:00:00 19.8 7 Noroeste 14 Noroeste 0 -- -- 33
2019-03-30 15:00:00 17.8 5 Este 37 Este 0 -- -- 35
2019-03-30 14:00:00 18.2 9 Este 22 Este 0 -- -- 35
2019-03-30 13:00:00 17 5 Este 19 Este 0 -- -- 37
2019-03-30 12:00:00 15.5 9 Este 21 Este 0 -- -- 39
2019-03-30 11:00:00 14.1 8 Nordeste 17 Este 0 -- -- 43
2019-03-30 10:00:00 11.8 9 Este 13 Este 0 -- -- 49
2019-03-30 09:00:00 8.4 8 Este 14 Este 0 -- -- 56
2019-03-30 08:00:00 5.5 5 Sudeste 13 Sudeste 0 -- -- 60
2019-03-30 07:00:00 4.3 6 Sudeste 11 Sudeste 0 -- -- 59
2019-03-30 06:00:00 4.2 3 Sudeste 10 Sudeste 0 -- -- 61
2019-03-30 05:00:00 4.7 6 Sudeste 15 Sudeste 0 -- -- 60
2019-03-30 04:00:00 4.9 9 Sudeste 14 Este 0 -- -- 62
2019-03-30 03:00:00 6.3 7 Sudeste 17 Sur 0 -- -- 58
2019-03-30 02:00:00 7.8 8 Sudeste 15 Sudeste 0 -- -- 59
2019-03-30 01:00:00 7.9 8 Sudeste 19 Sur 0 -- -- 62
2019-03-30 00:00:00 7.1 9 Sudeste 19 Sudeste 0 -- -- 64
2019-03-29 23:00:00 7.7 9 Sudeste 18 Este 0 -- -- 62
2019-03-29 22:00:00 8.4 11 Sudeste 23 Sudeste 0 -- -- 59
2019-03-29 21:00:00 9.7 12 Sudeste 22 Sudeste 0 -- -- 55
2019-03-29 20:00:00 11.5 7 Sudeste 20 Sudeste 0 -- -- 47
2019-03-29 19:00:00 15.4 9 Sudeste 20 Sudeste 0 -- -- 36
2019-03-29 18:00:00 17.1 7 Sur 22 Sur 0 -- -- 32
2019-03-29 17:00:00 18 8 Sudeste 25 Sur 0 -- -- 30
2019-03-29 16:00:00 18 11 Sur 24 Sudoeste 0 -- -- 29
2019-03-29 15:00:00 16.9 9 Sur 24 Sur 0 -- -- 28
2019-03-29 14:00:00 16.2 10 Sudoeste 27 Sudoeste 0 -- -- 26
2019-03-29 13:00:00 16.3 12 Sur 27 Sur 0 -- -- 26
2019-03-29 12:00:00 14.4 9 Sur 25 Sudoeste 0 -- -- 26
2019-03-29 11:00:00 13.8 9 Sur 24 Sudeste 0 -- -- 31
2019-03-29 10:00:00 11 7 Sudeste 19 Sur 0 -- -- 37
2019-03-29 09:00:00 8.2 7 Sudeste 18 Sudeste 0 -- -- 41
2019-03-29 08:00:00 4.5 9 Sudeste 17 Sudeste 0 -- -- 46
2019-03-29 07:00:00 2.4 10 Sudeste 27 Este 0 -- -- 50
2019-03-29 06:00:00 1.7 22 Este 37 Este 0 -- -- 52
2019-03-29 05:00:00 1.9 22 Este 27 Este 0 -- -- 48
2019-03-29 04:00:00 3.3 11 Sudeste 17 Este 0 -- -- 45
2019-03-29 03:00:00 3.8 10 Este 16 Sudeste 0 -- -- 49
2019-03-29 02:00:00 4.3 7 Sudeste 19 Sudeste 0 -- -- 47
2019-03-29 01:00:00 6.2 10 Sudeste 24 Sudeste 0 -- -- 42
2019-03-29 00:00:00 6.8 11 Sudeste 32 Sur 0 -- -- 40
2019-03-28 23:00:00 7.3 14 Sudeste 25 Sur 0 -- -- 37
2019-03-28 22:00:00 7.7 11 Sudeste 25 Sudeste 0 -- -- 33
2019-03-28 21:00:00 8.4 11 Sudeste 21 Sudeste 0 -- -- 33
2019-03-28 20:00:00 10.4 11 Sudeste 29 Sudeste 0 -- -- 29
2019-03-28 19:00:00 13.4 19 Sudeste 36 Este 0 -- -- 28
2019-03-28 18:00:00 15.1 19 Sudeste 35 Este 0 -- -- 27
2019-03-28 17:00:00 16.2 23 Este 37 Este 0 -- -- 26
2019-03-28 16:00:00 17.6 13 Sudeste 41 Este 0 -- -- 24
2019-03-28 15:00:00 18.1 16 Sudeste 37 Este 0 -- -- 25
2019-03-28 14:00:00 18.4 14 Sudeste 31 Sudeste 0 -- -- 24
2019-03-28 13:00:00 17.3 13 Sudeste 32 Sudeste 0 -- -- 25
2019-03-28 12:00:00 16.3 14 Sudeste 31 Sudeste 0 -- -- 24
2019-03-28 11:00:00 14.6 13 Sudeste 32 Sudeste 0 -- -- 25
2019-03-28 10:00:00 11.5 15 Sudeste 31 Sudeste 0 -- -- 27
2019-03-28 09:00:00 7.1 13 Sudeste 32 Este 0 -- -- 33
2019-03-28 08:00:00 3.1 21 Este 29 Este 0 -- -- 40
2019-03-28 07:00:00 1.9 25 Este 32 Este 0 -- -- 41
2019-03-28 06:00:00 2.1 18 Este 36 Este 0 -- -- 39
2019-03-28 05:00:00 2.5 15 Este 19 Este 0 -- -- 42
2019-03-28 04:00:00 3.1 12 Sudeste 18 Este 0 -- -- 46
2019-03-28 03:00:00 3.3 11 Este 18 Sudeste 0 -- -- 57
2019-03-28 02:00:00 4.5 9 Sudeste 14 Sudeste 0 -- -- 56
2019-03-28 01:00:00 5.4 9 Sudeste 18 Sudeste 0 -- -- 53
2019-03-28 00:00:00 5.8 10 Sudeste 17 Sudeste 0 -- -- 50
2019-03-27 23:00:00 6.6 8 Sudeste 16 Sudeste 0 -- -- 45
2019-03-27 22:00:00 7.9 10 Sudeste 18 Sudeste 0 -- -- 36
2019-03-27 21:00:00 8.5 10 Sudeste 21 Este 0 -- -- 32
2019-03-27 20:00:00 10.7 16 Este 32 Este 0 -- -- 29
2019-03-27 19:00:00 13.1 26 Este 39 Este 0 -- -- 27
2019-03-27 18:00:00 14.5 29 Este 41 Este 0 -- -- 26
2019-03-27 17:00:00 15.2 28 Este 42 Este 0 -- -- 25
2019-03-27 16:00:00 15.4 23 Este 43 Este 0 -- -- 26
2019-03-27 15:00:00 15.4 23 Este 44 Este 0 -- -- 24
2019-03-27 14:00:00 15.6 14 Sudeste 39 Este 0 -- -- 24
2019-03-27 13:00:00 14.3 24 Sudeste 46 Este 0 -- -- 23
2019-03-27 12:00:00 13.2 23 Este 41 Este 0 -- -- 25
2019-03-27 11:00:00 11.8 19 Sudeste 34 Este 0 -- -- 30
2019-03-27 10:00:00 9.5 9 Sudeste 26 Sudeste 0 -- -- 40
2019-03-27 09:00:00 5.7 12 Este 27 Este 0 -- -- 55
2019-03-27 08:00:00 1.6 21 Este 26 Este 0 -- -- 65
2019-03-27 07:00:00 1.9 15 Este 23 Este 0 -- -- 58
2019-03-27 06:00:00 2.6 13 Sudeste 22 Sudeste 0 -- -- 54
2019-03-27 05:00:00 3 14 Sudeste 23 Sudeste 0 -- -- 54
2019-03-27 04:00:00 3.8 14 Sudeste 28 Sudeste 0 -- -- 65
2019-03-27 03:00:00 2.9 16 Este 25 Este 0 -- -- 77
2019-03-27 02:00:00 3.1 18 Este 24 Este 0 -- -- 78
2019-03-27 01:00:00 4.6 13 Este 20 Sudeste 0 -- -- 69
2019-03-27 00:00:00 6.1 12 Sudeste 21 Este 0 -- -- 64